Time;durP1;ratioP1;P1;durP2;ratioP2;P2;SDS_P1;SDS_P2;PMS_P1;PMS_P2;Temp;Humidity;BMP_temperature;BMP_pressure;BME280_temperature;BME280_humidity;BME280_pressure;Samples;Min_cycle;Max_cycle;Signal;HPM_P1;HPM_P2
2021/05/22 00:00:11;;;;;;;0.70;0.60;;;9.10;99.90;;;;;;5071995;28;20508;-52
2021/05/22 00:02:38;;;;;;;0.60;0.50;;;9.10;99.90;;;;;;5071653;28;20474;-52
2021/05/22 00:05:06;;;;;;;0.70;0.70;;;9.00;99.90;;;;;;5071565;28;20940;-52
2021/05/22 00:07:33;;;;;;;0.90;0.70;;;8.80;99.90;;;;;;5071779;28;20453;-51
2021/05/22 00:10:01;;;;;;;0.70;0.50;;;8.70;99.90;;;;;;5071817;28;20528;-52
2021/05/22 00:12:28;;;;;;;0.73;0.50;;;8.70;99.90;;;;;;5071628;28;21011;-52
2021/05/22 00:14:54;;;;;;;0.60;0.40;;;8.70;99.90;;;;;;5070797;28;20839;-52
2021/05/22 00:17:21;;;;;;;0.90;0.60;;;8.60;99.90;;;;;;5071367;28;20446;-52
2021/05/22 00:19:47;;;;;;;0.80;0.70;;;8.70;99.90;;;;;;5071470;28;20552;-52
2021/05/22 00:22:14;;;;;;;0.77;0.50;;;8.60;99.90;;;;;;5071476;28;20814;-52
2021/05/22 00:24:41;;;;;;;1.33;0.47;;;8.50;99.90;;;;;;5071484;28;20455;-52
2021/05/22 00:27:07;;;;;;;0.60;0.50;;;8.40;99.90;;;;;;5071521;28;20455;-51
2021/05/22 00:29:34;;;;;;;0.60;0.60;;;8.60;99.90;;;;;;5071281;28;20952;-52
2021/05/22 00:32:00;;;;;;;1.07;0.80;;;8.60;99.90;;;;;;5071025;28;20450;-51
2021/05/22 00:34:27;;;;;;;0.70;0.53;;;8.70;99.90;;;;;;5070808;28;20482;-51
2021/05/22 00:36:53;;;;;;;0.80;0.60;;;8.70;99.90;;;;;;5071739;28;20447;-52
2021/05/22 00:39:19;;;;;;;0.70;0.40;;;8.70;99.90;;;;;;5071471;28;20531;-51
2021/05/22 00:41:47;;;;;;;0.70;0.60;;;8.40;99.90;;;;;;5071217;28;20457;-51
2021/05/22 00:44:13;;;;;;;1.20;0.60;;;8.30;99.90;;;;;;5071052;28;20887;-51
2021/05/22 00:46:40;;;;;;;0.70;0.50;;;8.30;99.90;;;;;;5074729;28;20478;-51
2021/05/22 00:49:08;;;;;;;1.00;0.50;;;8.30;99.90;;;;;;5075222;28;20534;-51
2021/05/22 00:51:35;;;;;;;0.97;0.80;;;8.20;99.90;;;;;;5075284;28;20448;-50
2021/05/22 00:54:01;;;;;;;1.00;0.70;;;8.30;99.90;;;;;;5074337;28;20477;-51
2021/05/22 00:56:28;;;;;;;0.53;0.50;;;8.30;99.90;;;;;;5075092;28;20461;-51
2021/05/22 00:58:55;;;;;;;0.70;0.60;;;8.30;99.90;;;;;;5075166;28;20458;-51
2021/05/22 01:01:22;;;;;;;0.70;0.70;;;8.30;99.90;;;;;;5074349;28;20485;-51
2021/05/22 01:03:52;;;;;;;1.27;0.90;;;8.40;99.90;;;;;;5074117;28;20516;-51
2021/05/22 01:06:20;;;;;;;0.70;0.70;;;8.40;99.90;;;;;;5074915;28;20451;-51
2021/05/22 01:08:48;;;;;;;1.73;0.90;;;8.30;99.90;;;;;;5073643;28;20456;-51
2021/05/22 01:11:17;;;;;;;2.30;1.00;;;8.30;99.90;;;;;;5074859;28;20454;-51
2021/05/22 01:13:47;;;;;;;1.40;0.73;;;8.30;99.90;;;;;;5074862;28;20474;-51
2021/05/22 01:16:17;;;;;;;1.10;1.00;;;8.40;99.90;;;;;;5074506;28;20959;-51
2021/05/22 01:18:44;;;;;;;0.97;0.80;;;8.50;99.90;;;;;;5074111;28;20950;-51
2021/05/22 01:21:12;;;;;;;0.80;0.80;;;8.40;99.90;;;;;;5074254;28;20509;-51
2021/05/22 01:23:42;;;;;;;1.60;0.60;;;8.30;99.90;;;;;;5073909;28;20474;-50
2021/05/22 01:26:11;;;;;;;0.87;0.60;;;8.30;99.90;;;;;;5074428;28;20494;-51
2021/05/22 01:28:38;;;;;;;0.60;0.50;;;8.30;99.90;;;;;;5074541;28;20798;-51
2021/05/22 01:31:08;;;;;;;0.60;0.50;;;8.30;99.90;;;;;;5074722;28;20455;-50
2021/05/22 01:33:36;;;;;;;2.10;0.60;;;8.20;99.90;;;;;;5102418;22;21046;-56
2021/05/22 01:36:03;;;;;;;0.90;0.70;;;8.10;99.90;;;;;;5093426;28;20863;-56
2021/05/22 01:38:29;;;;;;;1.07;0.60;;;8.20;99.90;;;;;;5094817;28;20454;-56
2021/05/22 01:40:56;;;;;;;1.07;0.43;;;8.00;99.90;;;;;;5094761;28;20482;-56
2021/05/22 01:43:23;;;;;;;1.10;0.53;;;8.00;99.90;;;;;;5094538;28;20514;-56
2021/05/22 01:45:54;;;;;;;1.87;0.60;;;8.10;99.90;;;;;;5094599;28;20935;-56
2021/05/22 01:48:24;;;;;;;0.80;0.50;;;8.10;99.90;;;;;;5094417;28;20450;-56
2021/05/22 01:50:58;;;;;;;3.03;0.70;;;8.10;99.90;;;;;;5094180;28;20454;-56
2021/05/22 01:53:26;;;;;;;0.63;0.60;;;8.10;99.90;;;;;;5094696;28;20468;-56
2021/05/22 01:55:53;;;;;;;0.60;0.40;;;8.10;99.90;;;;;;5094163;28;20448;-56
2021/05/22 01:58:20;;;;;;;0.80;0.50;;;8.20;99.90;;;;;;5093101;28;20507;-57
2021/05/22 02:00:47;;;;;;;0.50;0.40;;;8.30;99.90;;;;;;5094398;28;20477;-56
2021/05/22 02:03:25;;;;;;;0.53;0.40;;;8.10;99.90;;;;;;5093987;28;20467;-56
2021/05/22 02:05:53;;;;;;;0.67;0.50;;;8.10;99.90;;;;;;5093846;28;21131;-56
2021/05/22 02:08:22;;;;;;;0.50;0.40;;;8.10;99.90;;;;;;5094427;28;20446;-56
2021/05/22 02:10:50;;;;;;;0.60;0.40;;;8.20;99.90;;;;;;5094481;28;20445;-56
2021/05/22 02:13:18;;;;;;;0.70;0.40;;;8.20;99.90;;;;;;5094528;28;20480;-56
2021/05/22 02:15:51;;;;;;;0.60;0.40;;;8.10;99.90;;;;;;5094993;28;20447;-57
2021/05/22 02:18:18;;;;;;;0.50;0.40;;;8.20;99.90;;;;;;5094894;28;20451;-56
2021/05/22 02:20:46;;;;;;;0.73;0.60;;;8.20;99.90;;;;;;5106624;28;20476;-57
2021/05/22 02:23:14;;;;;;;0.60;0.40;;;8.30;99.90;;;;;;5110137;28;20475;-57
2021/05/22 02:25:41;;;;;;;0.60;0.50;;;8.20;99.90;;;;;;5110292;28;20440;-56
2021/05/22 02:28:08;;;;;;;0.80;0.70;;;8.20;99.90;;;;;;5109608;28;20515;-56
2021/05/22 02:30:36;;;;;;;0.70;0.63;;;8.30;99.90;;;;;;5108431;28;20450;-56
2021/05/22 02:33:05;;;;;;;0.70;0.50;;;8.20;99.90;;;;;;5109307;28;20453;-56
2021/05/22 02:35:32;;;;;;;0.70;0.70;;;8.40;99.90;;;;;;5101156;28;20445;-56
2021/05/22 02:37:59;;;;;;;0.60;0.50;;;8.40;99.90;;;;;;5093614;28;20456;-56
2021/05/22 02:40:29;;;;;;;0.60;0.50;;;8.20;99.90;;;;;;5094006;28;20560;-56
2021/05/22 02:42:59;;;;;;;0.60;0.50;;;8.30;99.90;;;;;;5094189;28;20465;-56
2021/05/22 02:45:28;;;;;;;1.40;0.60;;;8.40;99.90;;;;;;5093343;28;20473;-56
2021/05/22 02:47:57;;;;;;;0.80;0.50;;;8.40;99.90;;;;;;5093780;28;20450;-56
2021/05/22 02:50:26;;;;;;;1.10;0.50;;;8.40;99.90;;;;;;5093925;28;20449;-56
2021/05/22 02:52:54;;;;;;;0.80;0.60;;;8.30;99.90;;;;;;5092642;28;20495;-57
2021/05/22 02:55:21;;;;;;;0.60;0.50;;;8.40;99.90;;;;;;5093083;28;20454;-56
2021/05/22 02:57:49;;;;;;;0.70;0.50;;;8.40;99.90;;;;;;5093456;28;20500;-56
2021/05/22 03:00:17;;;;;;;0.70;0.50;;;8.40;99.90;;;;;;5092891;28;21039;-56
2021/05/22 03:02:44;;;;;;;1.10;0.50;;;8.50;99.90;;;;;;5093193;28;20465;-56
2021/05/22 03:05:13;;;;;;;3.03;0.53;;;8.40;99.90;;;;;;5092744;28;20450;-56
2021/05/22 03:07:40;;;;;;;0.60;0.40;;;8.40;99.90;;;;;;5092830;28;20610;-56
2021/05/22 03:10:08;;;;;;;0.60;0.40;;;8.40;99.90;;;;;;5076753;28;20443;-56
2021/05/22 03:12:36;;;;;;;0.50;0.40;;;8.30;99.90;;;;;;5076650;28;20585;-56
2021/05/22 03:15:03;;;;;;;0.60;0.50;;;8.40;99.90;;;;;;5092255;28;20470;-56
2021/05/22 03:17:30;;;;;;;0.90;0.50;;;8.40;99.90;;;;;;5092739;28;20797;-56
2021/05/22 03:19:56;;;;;;;0.50;0.40;;;8.40;99.90;;;;;;5092705;28;20841;-56
2021/05/22 03:22:23;;;;;;;0.60;0.40;;;8.30;99.90;;;;;;5092944;28;20452;-56
2021/05/22 03:24:51;;;;;;;0.60;0.50;;;8.30;99.90;;;;;;5091488;28;21041;-55
2021/05/22 03:27:17;;;;;;;0.60;0.40;;;8.30;99.90;;;;;;5092554;28;20534;-55
2021/05/22 03:29:44;;;;;;;0.60;0.50;;;8.40;99.90;;;;;;5092623;28;20518;-55
2021/05/22 03:32:10;;;;;;;0.50;0.40;;;8.40;99.90;;;;;;5092695;28;20452;-56
2021/05/22 03:34:37;;;;;;;0.53;0.40;;;8.40;99.90;;;;;;5092185;28;20480;-55
2021/05/22 03:37:03;;;;;;;0.50;0.40;;;8.40;99.90;;;;;;5092691;28;20449;-56
2021/05/22 03:39:30;;;;;;;0.67;0.50;;;8.40;99.90;;;;;;5092164;28;21027;-56
2021/05/22 03:41:57;;;;;;;0.60;0.60;;;8.40;99.90;;;;;;5091914;28;20822;-55
2021/05/22 03:44:24;;;;;;;0.60;0.50;;;8.30;99.90;;;;;;5092026;28;20478;-56
2021/05/22 03:46:50;;;;;;;0.70;0.50;;;8.40;99.90;;;;;;5092413;28;20596;-55
2021/05/22 03:49:17;;;;;;;1.20;1.10;;;8.50;99.90;;;;;;5092424;28;20446;-56
2021/05/22 03:51:43;;;;;;;0.80;0.80;;;8.50;99.90;;;;;;5091994;28;20445;-55
2021/05/22 03:54:10;;;;;;;0.70;0.50;;;8.50;99.90;;;;;;5091865;28;20606;-55
2021/05/22 03:56:36;;;;;;;0.60;0.50;;;8.40;99.90;;;;;;5091204;28;20443;-55
2021/05/22 03:59:07;;;;;;;0.63;0.40;;;8.40;99.90;;;;;;5092399;28;20446;-55
2021/05/22 04:01:33;;;;;;;3.23;0.43;;;8.40;99.90;;;;;;5092285;28;20927;-56
2021/05/22 04:04:00;;;;;;;1.37;0.57;;;8.40;99.90;;;;;;5091934;28;20867;-55
2021/05/22 04:06:26;;;;;;;0.77;0.50;;;8.40;99.90;;;;;;5091519;28;20835;-55
2021/05/22 04:08:53;;;;;;;0.57;0.40;;;8.50;99.90;;;;;;5092097;28;20935;-56
2021/05/22 04:11:19;;;;;;;0.60;0.50;;;8.60;99.90;;;;;;5091605;28;20449;-55
2021/05/22 04:13:46;;;;;;;0.97;0.40;;;8.60;99.90;;;;;;5091858;28;20473;-55
2021/05/22 04:16:13;;;;;;;1.40;0.50;;;8.50;99.90;;;;;;5091749;28;20454;-55
2021/05/22 04:18:39;;;;;;;0.87;0.50;;;8.60;99.90;;;;;;5092043;28;20448;-55
2021/05/22 04:21:06;;;;;;;2.60;0.50;;;8.60;99.90;;;;;;5091397;28;20485;-56
2021/05/22 04:23:32;;;;;;;0.60;0.40;;;8.50;99.90;;;;;;5091891;28;20496;-55
2021/05/22 04:25:59;;;;;;;0.93;0.50;;;8.40;99.90;;;;;;5091295;28;20452;-56
2021/05/22 04:28:26;;;;;;;0.83;0.50;;;8.50;99.90;;;;;;5091888;28;20559;-56
2021/05/22 04:30:52;;;;;;;0.90;0.70;;;8.60;99.90;;;;;;5091706;28;20446;-55
2021/05/22 04:33:19;;;;;;;0.73;0.60;;;8.60;99.90;;;;;;5091582;28;20477;-56
2021/05/22 04:35:46;;;;;;;0.60;0.50;;;8.70;99.90;;;;;;5091722;28;20446;-55
2021/05/22 04:38:13;;;;;;;0.60;0.53;;;8.80;99.90;;;;;;5091524;28;20449;-56
2021/05/22 04:40:39;;;;;;;0.97;0.60;;;8.70;99.90;;;;;;5091279;28;20484;-55
2021/05/22 04:43:06;;;;;;;1.00;0.60;;;8.70;99.90;;;;;;5091324;28;20994;-56
2021/05/22 04:45:33;;;;;;;26.30;15.80;;;8.70;99.90;;;;;;5091514;28;20476;-55
2021/05/22 04:47:59;;;;;;;24.77;13.00;;;8.90;99.90;;;;;;5091769;28;20456;-55
2021/05/22 04:50:29;;;;;;;21.27;11.40;;;8.80;99.90;;;;;;5091655;28;20867;-55
2021/05/22 04:52:55;;;;;;;19.23;8.90;;;8.70;99.90;;;;;;5091243;28;20486;-55
2021/05/22 04:55:22;;;;;;;13.77;7.30;;;8.90;99.90;;;;;;5091567;28;20536;-55
2021/05/22 04:57:48;;;;;;;14.83;6.50;;;9.00;99.90;;;;;;5091392;28;20472;-55
2021/05/22 05:00:17;;;;;;;13.70;6.07;;;9.00;99.90;;;;;;5091061;28;20481;-55
2021/05/22 05:02:44;;;;;;;17.80;7.50;;;9.00;99.90;;;;;;5086019;28;20457;-56
2021/05/22 05:05:12;;;;;;;13.70;6.90;;;9.00;99.90;;;;;;5086455;28;20445;-56
2021/05/22 05:07:41;;;;;;;7.20;3.37;;;9.00;99.90;;;;;;5090751;28;20531;-56
2021/05/22 05:10:10;;;;;;;6.73;3.93;;;9.10;99.90;;;;;;5073701;28;20447;-56
2021/05/22 05:12:36;;;;;;;6.03;3.00;;;9.10;99.90;;;;;;5075946;28;20456;-56
2021/05/22 05:15:04;;;;;;;2.30;1.70;;;9.20;99.90;;;;;;5090909;28;20465;-56
2021/05/22 05:17:30;;;;;;;3.10;2.00;;;9.30;99.90;;;;;;5091481;28;20441;-56
2021/05/22 05:19:57;;;;;;;2.40;1.63;;;9.40;99.90;;;;;;5091314;28;20488;-55
2021/05/22 05:22:24;;;;;;;1.50;1.10;;;9.40;99.90;;;;;;5091596;28;20540;-56
2021/05/22 05:24:51;;;;;;;0.80;0.80;;;9.50;99.90;;;;;;5090991;28;20465;-56
2021/05/22 05:27:17;;;;;;;1.37;0.80;;;9.50;99.90;;;;;;5091351;28;20449;-56
2021/05/22 05:29:44;;;;;;;2.33;0.80;;;9.50;99.90;;;;;;5091053;28;20457;-56
2021/05/22 05:32:11;;;;;;;2.40;1.27;;;9.60;99.90;;;;;;5092582;28;20453;-56
2021/05/22 05:34:41;;;;;;;1.60;1.20;;;9.70;99.90;;;;;;5094373;28;20482;-56
2021/05/22 05:37:08;;;;;;;1.27;1.10;;;9.60;99.90;;;;;;5094739;28;20465;-56
2021/05/22 05:39:35;;;;;;;1.20;1.10;;;9.70;99.90;;;;;;5094862;28;20444;-56
2021/05/22 05:42:03;;;;;;;3.83;1.50;;;10.00;99.90;;;;;;5094867;28;20481;-56
2021/05/22 05:44:29;;;;;;;2.43;1.10;;;10.10;99.90;;;;;;5094495;28;20474;-55
2021/05/22 05:46:56;;;;;;;0.97;0.87;;;10.10;99.90;;;;;;5094187;28;20548;-55
2021/05/22 05:49:23;;;;;;;1.00;0.90;;;10.20;99.90;;;;;;5094898;28;20477;-56
2021/05/22 05:51:49;;;;;;;1.10;0.83;;;10.20;99.90;;;;;;5094783;28;20842;-56
2021/05/22 05:54:16;;;;;;;3.27;0.90;;;10.40;99.90;;;;;;5094363;28;20898;-56
2021/05/22 05:56:42;;;;;;;1.10;1.00;;;10.50;99.90;;;;;;5093764;28;20450;-56
2021/05/22 05:59:12;;;;;;;1.00;0.90;;;10.60;99.90;;;;;;5094443;28;20450;-56
2021/05/22 06:01:39;;;;;;;1.63;1.20;;;10.70;99.90;;;;;;5091657;28;20531;-56
2021/05/22 06:04:08;;;;;;;1.70;1.03;;;10.70;99.90;;;;;;5074133;28;20478;-56
2021/05/22 06:06:34;;;;;;;1.10;1.00;;;10.60;99.90;;;;;;5083533;28;20465;-56
2021/05/22 06:09:02;;;;;;;0.90;0.90;;;10.70;99.90;;;;;;5093167;28;20446;-56
2021/05/22 06:11:30;;;;;;;1.13;1.03;;;10.80;99.90;;;;;;5087666;28;21027;-56
2021/05/22 06:13:57;;;;;;;1.40;1.30;;;10.90;99.90;;;;;;5073946;28;20555;-56
2021/05/22 06:16:28;;;;;;;1.77;1.50;;;10.90;99.90;;;;;;5083959;28;21009;-56
2021/05/22 06:18:55;;;;;;;1.30;1.20;;;10.80;99.90;;;;;;5094039;28;20493;-57
2021/05/22 06:21:22;;;;;;;1.20;1.00;;;11.00;99.90;;;;;;5093830;28;20538;-56
2021/05/22 06:23:49;;;;;;;1.37;1.10;;;11.00;99.90;;;;;;5093635;28;20879;-56
2021/05/22 06:26:15;;;;;;;2.57;1.43;;;11.00;99.90;;;;;;5093616;28;20531;-56
2021/05/22 06:28:42;;;;;;;1.37;1.27;;;11.10;99.90;;;;;;5091567;28;20457;-55
2021/05/22 06:31:09;;;;;;;2.90;1.07;;;10.90;99.90;;;;;;5090607;28;20442;-56
2021/05/22 06:33:37;;;;;;;2.57;0.90;;;10.90;99.90;;;;;;5092743;28;20503;-56
2021/05/22 06:36:04;;;;;;;2.27;1.00;;;11.00;99.90;;;;;;5081036;28;20447;-56
2021/05/22 06:38:31;;;;;;;1.87;1.20;;;11.20;99.90;;;;;;5086660;28;20446;-56
2021/05/22 06:40:57;;;;;;;4.50;1.10;;;11.40;99.90;;;;;;5084426;28;20492;-56
2021/05/22 06:43:24;;;;;;;1.37;1.00;;;11.50;99.90;;;;;;5091730;28;20470;-56
2021/05/22 06:45:58;;;;;;;2.57;1.13;;;11.50;99.90;;;;;;5077719;28;20467;-56
2021/05/22 06:48:25;;;;;;;1.20;1.10;;;11.40;99.90;;;;;;5087785;28;20454;-56
2021/05/22 06:50:53;;;;;;;1.30;1.20;;;11.50;99.90;;;;;;5091158;28;20474;-56
2021/05/22 06:53:20;;;;;;;1.53;1.43;;;11.60;99.90;;;;;;5092546;28;20462;-56
2021/05/22 06:55:46;;;;;;;2.90;2.10;;;11.90;99.90;;;;;;5090356;28;20866;-56
2021/05/22 06:58:13;;;;;;;1.60;1.50;;;12.00;99.90;;;;;;5078443;28;22283;-56
2021/05/22 07:00:39;;;;;;;1.53;1.43;;;12.20;99.90;;;;;;5090594;28;21014;-56
2021/05/22 07:03:06;;;;;;;1.30;1.20;;;12.40;99.90;;;;;;5083967;28;20473;-56
2021/05/22 07:05:33;;;;;;;1.30;1.20;;;12.60;99.90;;;;;;5091081;28;20466;-56
2021/05/22 07:08:02;;;;;;;1.30;1.13;;;12.70;99.90;;;;;;5087156;28;20853;-56
2021/05/22 07:10:29;;;;;;;1.43;1.33;;;12.80;99.90;;;;;;5085851;28;20539;-56
2021/05/22 07:12:55;;;;;;;2.20;1.30;;;12.90;99.90;;;;;;5092573;28;20445;-56
2021/05/22 07:15:22;;;;;;;2.13;1.40;;;12.80;99.90;;;;;;5091852;28;20462;-56
2021/05/22 07:17:48;;;;;;;1.60;1.50;;;12.60;99.90;;;;;;5076946;28;20952;-57
2021/05/22 07:20:15;;;;;;;2.50;1.63;;;12.40;99.90;;;;;;5091685;28;20477;-56
2021/05/22 07:22:42;;;;;;;2.23;1.90;;;12.50;99.90;;;;;;5092462;28;20454;-57
2021/05/22 07:25:11;;;;;;;3.33;1.50;;;12.50;99.90;;;;;;5092316;28;20523;-57
2021/05/22 07:27:37;;;;;;;4.93;3.20;;;12.40;99.90;;;;;;5092567;28;20899;-57
2021/05/22 07:30:07;;;;;;;7.83;4.40;;;12.50;99.90;;;;;;5087552;28;20469;-57
2021/05/22 07:32:34;;;;;;;5.80;3.50;;;12.60;99.90;;;;;;5087383;28;20842;-57
2021/05/22 07:35:00;;;;;;;1.40;1.30;;;12.80;99.90;;;;;;5098924;22;20498;-53
2021/05/22 07:37:27;;;;;;;1.20;1.10;;;13.30;99.90;;;;;;5071408;28;20447;-52
2021/05/22 07:39:56;;;;;;;1.10;1.10;;;13.60;99.90;;;;;;5063532;28;20439;-52
2021/05/22 07:42:24;;;;;;;2.80;1.10;;;14.30;99.90;;;;;;5072035;28;20599;-52
2021/05/22 07:44:51;;;;;;;1.23;1.13;;;14.60;99.90;;;;;;5068659;28;20482;-52
2021/05/22 07:47:17;;;;;;;0.97;0.97;;;14.90;99.90;;;;;;5064471;28;20850;-53
2021/05/22 07:49:44;;;;;;;1.00;0.90;;;15.50;99.90;;;;;;5071391;28;20451;-52
2021/05/22 07:52:11;;;;;;;1.97;0.97;;;16.30;99.90;;;;;;5071604;28;21016;-52
2021/05/22 07:54:39;;;;;;;1.73;0.90;;;17.30;99.90;;;;;;5070986;28;20471;-53
2021/05/22 07:57:07;;;;;;;1.70;0.80;;;18.20;99.90;;;;;;5072023;28;20447;-53
2021/05/22 07:59:35;;;;;;;3.33;0.90;;;19.40;99.90;;;;;;5071025;28;20454;-53
2021/05/22 08:02:02;;;;;;;3.37;0.77;;;19.80;99.90;;;;;;5071437;28;20482;-54
2021/05/22 08:04:28;;;;;;;1.40;1.13;;;20.20;99.90;;;;;;5070436;28;20474;-54
2021/05/22 08:06:55;;;;;;;1.83;0.90;;;20.50;99.90;;;;;;5071743;28;20458;-53
2021/05/22 08:09:21;;;;;;;2.20;0.80;;;20.80;99.90;;;;;;5071338;28;20458;-54
2021/05/22 08:11:48;;;;;;;1.27;0.80;;;20.80;99.90;;;;;;5071281;28;20451;-54
2021/05/22 08:14:15;;;;;;;1.07;0.70;;;21.30;99.90;;;;;;5070923;28;20520;-54
2021/05/22 08:16:42;;;;;;;1.53;0.90;;;21.30;99.90;;;;;;5071731;28;20450;-54
2021/05/22 08:19:12;;;;;;;1.00;0.80;;;21.80;99.90;;;;;;5070956;28;20443;-54
2021/05/22 08:21:40;;;;;;;0.77;0.77;;;21.80;99.90;;;;;;5071541;28;20486;-54
2021/05/22 08:24:08;;;;;;;1.87;1.27;;;21.40;99.90;;;;;;5070369;28;20489;-54
2021/05/22 08:26:36;;;;;;;1.53;0.80;;;21.00;99.90;;;;;;5070893;28;20948;-54
2021/05/22 08:29:04;;;;;;;1.03;0.80;;;20.50;99.90;;;;;;5064221;28;21003;-53
2021/05/22 08:31:31;;;;;;;0.80;0.70;;;21.60;98.70;;;;;;5068513;28;20458;-54
2021/05/22 08:33:59;;;;;;;1.57;0.70;;;22.30;99.10;;;;;;5064514;28;20942;-54
2021/05/22 08:36:26;;;;;;;1.57;0.77;;;22.30;99.00;;;;;;5067131;28;20978;-54
2021/05/22 08:38:53;;;;;;;1.10;0.77;;;21.90;99.90;;;;;;5056891;28;20450;-54
2021/05/22 08:41:20;;;;;;;1.63;1.03;;;21.10;99.90;;;;;;5070544;28;20509;-54
2021/05/22 08:43:48;;;;;;;1.10;0.70;;;20.20;99.90;;;;;;5062336;28;21204;-54
2021/05/22 08:46:16;;;;;;;0.93;0.73;;;21.10;97.60;;;;;;5058633;28;20452;-55
2021/05/22 08:48:43;;;;;;;2.27;0.80;;;21.60;96.30;;;;;;5056639;28;20482;-54
2021/05/22 08:51:12;;;;;;;1.03;0.80;;;22.30;97.00;;;;;;5066614;28;20451;-54
2021/05/22 08:53:38;;;;;;;0.70;0.60;;;22.80;94.90;;;;;;5064902;28;20463;-53
2021/05/22 08:56:05;;;;;;;1.20;1.00;;;23.30;93.00;;;;;;5069340;28;21063;-54
2021/05/22 08:58:32;;;;;;;1.73;0.70;;;22.90;93.50;;;;;;5068378;28;20458;-54
2021/05/22 09:01:00;;;;;;;1.87;0.83;;;22.60;97.70;;;;;;5070576;28;20475;-54
2021/05/22 09:03:27;;;;;;;1.77;0.97;;;21.70;95.80;;;;;;5066748;28;20494;-54
2021/05/22 09:05:54;;;;;;;1.17;0.90;;;21.40;94.90;;;;;;5068787;28;20500;-54
2021/05/22 09:08:21;;;;;;;0.80;0.70;;;21.90;95.10;;;;;;5060198;28;20512;-54
2021/05/22 09:10:50;;;;;;;4.80;0.90;;;22.50;97.90;;;;;;5066756;28;20460;-53
2021/05/22 09:13:21;;;;;;;0.83;0.70;;;21.30;96.30;;;;;;5063783;28;20205;-53
2021/05/22 09:15:48;;;;;;;0.80;0.70;;;20.70;96.30;;;;;;5074250;28;20935;-53
2021/05/22 09:18:17;;;;;;;0.87;0.67;;;20.00;96.60;;;;;;5073437;28;20442;-53
2021/05/22 09:20:46;;;;;;;1.63;0.80;;;17.80;96.40;;;;;;5072161;28;20486;-52
2021/05/22 09:23:14;;;;;;;2.20;0.77;;;16.90;99.80;;;;;;5063743;28;20478;-53
2021/05/22 09:25:45;;;;;;;0.70;0.70;;;17.10;98.70;;;;;;5063336;28;20479;-53
2021/05/22 09:28:13;;;;;;;1.00;0.70;;;17.00;97.90;;;;;;5055487;28;20439;-53
2021/05/22 09:30:41;;;;;;;0.70;0.60;;;17.40;99.40;;;;;;5074322;28;20454;-53
2021/05/22 09:33:12;;;;;;;0.70;0.67;;;18.00;98.10;;;;;;5073588;28;20978;-54
2021/05/22 09:35:39;;;;;;;1.03;0.73;;;19.10;98.30;;;;;;5073053;28;20576;-53
2021/05/22 09:38:06;;;;;;;1.50;0.80;;;20.00;95.20;;;;;;5070147;28;20443;-54
2021/05/22 09:40:34;;;;;;;2.20;0.70;;;20.00;95.90;;;;;;5060506;28;20532;-54
2021/05/22 09:43:03;;;;;;;1.63;0.80;;;20.00;97.70;;;;;;5069790;28;20455;-53
2021/05/22 09:45:33;;;;;;;1.27;0.80;;;19.50;95.50;;;;;;5066780;28;20478;-53
2021/05/22 09:48:09;;;;;;;1.13;0.60;;;19.00;97.90;;;;;;5073563;28;20443;-52
2021/05/22 09:50:37;;;;;;;1.80;0.73;;;18.80;96.40;;;;;;5073825;28;21002;-53
2021/05/22 09:53:20;;;;;;;0.90;0.60;;;18.00;98.10;;;;;;5071481;28;20447;-53
2021/05/22 09:56:08;;;;;;;3.80;0.90;;;17.40;97.70;;;;;;5062245;28;20442;-52
2021/05/22 09:58:36;;;;;;;0.80;0.60;;;17.50;96.80;;;;;;5068681;28;20956;-52
2021/05/22 10:01:03;;;;;;;1.70;0.60;;;17.50;99.20;;;;;;5071089;28;20834;-53
2021/05/22 10:03:30;;;;;;;1.40;0.70;;;17.90;97.20;;;;;;5072584;28;20458;-53
2021/05/22 10:05:56;;;;;;;1.00;0.70;;;18.70;96.30;;;;;;5067324;28;20463;-53
2021/05/22 10:08:23;;;;;;;0.70;0.70;;;19.00;96.10;;;;;;5064803;28;20443;-55
2021/05/22 10:10:53;;;;;;;1.10;1.00;;;19.30;94.90;;;;;;5072639;28;20443;-54
2021/05/22 10:13:21;;;;;;;3.67;0.90;;;19.60;95.50;;;;;;5072446;28;20834;-54
2021/05/22 10:15:49;;;;;;;1.80;0.80;;;20.20;94.80;;;;;;5072042;28;20881;-54
2021/05/22 10:18:16;;;;;;;2.17;0.80;;;20.40;94.10;;;;;;5072587;28;20458;-55
2021/05/22 10:20:43;;;;;;;3.77;0.83;;;20.80;93.80;;;;;;5072490;28;20489;-54
2021/05/22 10:23:10;;;;;;;1.30;0.80;;;21.40;94.30;;;;;;5067195;28;20474;-54
2021/05/22 10:25:37;;;;;;;0.83;0.80;;;21.90;92.20;;;;;;5068416;28;20510;-54
2021/05/22 10:28:05;;;;;;;1.43;0.60;;;22.20;92.90;;;;;;5076784;28;20845;-54
2021/05/22 10:30:32;;;;;;;1.67;1.57;;;21.90;91.00;;;;;;5069895;28;20467;-54
2021/05/22 10:33:01;;;;;;;1.90;0.80;;;21.90;91.40;;;;;;5072332;28;20508;-54
2021/05/22 10:35:28;;;;;;;0.73;0.73;;;21.60;90.30;;;;;;5071743;28;20504;-53
2021/05/22 10:37:55;;;;;;;2.50;0.77;;;20.90;91.30;;;;;;5054442;28;20456;-54
2021/05/22 10:40:22;;;;;;;2.10;0.70;;;20.80;90.80;;;;;;5062558;28;20453;-55
2021/05/22 10:42:55;;;;;;;1.07;0.70;;;21.50;94.20;;;;;;5072868;28;20451;-55
2021/05/22 10:45:33;;;;;;;1.27;0.70;;;21.40;93.60;;;;;;5072524;28;20471;-51
2021/05/22 10:48:02;;;;;;;0.80;0.70;;;21.90;90.50;;;;;;5064668;28;20443;-52
2021/05/22 10:50:44;;;;;;;0.90;0.70;;;21.50;87.30;;;;;;5071685;28;20443;-51
2021/05/22 10:53:23;;;;;;;1.27;0.60;;;21.10;90.50;;;;;;5064306;28;20538;-51
2021/05/22 10:56:14;;;;;;;2.57;0.93;;;21.20;91.50;;;;;;5071831;28;20484;-52
2021/05/22 10:59:15;;;;;;;1.43;1.00;;;20.90;91.80;;;;;;5060570;28;20516;-52
2021/05/22 11:01:47;;;;;;;1.30;1.20;;;20.30;97.60;;;;;;5067048;28;20486;-51
2021/05/22 11:04:36;;;;;;;2.70;0.90;;;19.60;96.80;;;;;;5057488;28;20462;-51
2021/05/22 11:07:22;;;;;;;1.00;0.80;;;19.00;96.00;;;;;;5064296;28;20490;-50
2021/05/22 11:09:52;;;;;;;1.47;0.70;;;19.60;93.80;;;;;;5065912;28;20466;-51
2021/05/22 11:12:45;;;;;;;1.20;0.90;;;19.70;93.00;;;;;;5059264;28;20444;-50
2021/05/22 11:15:47;;;;;;;2.77;0.70;;;19.90;91.80;;;;;;5056136;28;20987;-49
2021/05/22 11:18:19;;;;;;;1.93;0.90;;;19.60;92.20;;;;;;5067491;28;20462;-50
2021/05/22 11:21:18;;;;;;;1.53;0.80;;;19.80;92.60;;;;;;5071245;28;20990;-50
2021/05/22 11:24:05;;;;;;;0.80;0.70;;;19.20;91.70;;;;;;5071930;28;20459;-50
2021/05/22 11:26:53;;;;;;;1.33;0.77;;;18.40;93.00;;;;;;5070372;28;20443;-50
2021/05/22 11:29:22;;;;;;;1.23;1.03;;;18.10;97.80;;;;;;5071027;28;20504;-50
2021/05/22 11:31:49;;;;;;;1.50;0.80;;;18.10;96.10;;;;;;5052562;28;20450;-51
2021/05/22 11:34:29;;;;;;;0.97;0.80;;;18.30;96.70;;;;;;5057466;28;20479;-50
2021/05/22 11:37:31;;;;;;;1.83;0.90;;;18.20;96.50;;;;;;5057015;28;20452;-50
2021/05/22 11:39:58;;;;;;;1.67;1.00;;;18.50;97.80;;;;;;5066005;28;21032;-51
2021/05/22 11:42:31;;;;;;;2.20;1.00;;;18.70;97.60;;;;;;5071610;28;20494;-50
2021/05/22 11:44:59;;;;;;;1.33;0.80;;;18.50;95.40;;;;;;5060825;28;20463;-51
2021/05/22 11:47:33;;;;;;;1.43;1.00;;;18.40;96.20;;;;;;5071601;28;20451;-50
2021/05/22 11:50:00;;;;;;;1.00;0.90;;;17.90;97.30;;;;;;5066763;28;20536;-51
2021/05/22 11:52:28;;;;;;;1.47;1.10;;;17.90;96.90;;;;;;5051900;28;20497;-51
2021/05/22 11:54:55;;;;;;;2.70;1.13;;;18.30;96.00;;;;;;5051421;28;20475;-51
2021/05/22 11:57:22;;;;;;;0.80;0.77;;;18.40;99.40;;;;;;5051741;28;20814;-50
2021/05/22 11:59:48;;;;;;;4.70;1.20;;;17.40;97.30;;;;;;5054036;28;20448;-51
2021/05/22 12:02:34;;;;;;;3.63;0.90;;;17.10;99.80;;;;;;5071203;28;20991;-50
2021/05/22 12:05:00;;;;;;;3.13;0.90;;;17.00;98.50;;;;;;5070985;28;20477;-51
2021/05/22 12:07:27;;;;;;;1.13;1.03;;;17.10;98.90;;;;;;5070663;28;20447;-51
2021/05/22 12:09:53;;;;;;;3.10;1.10;;;17.10;99.60;;;;;;5070251;28;20458;-51
2021/05/22 12:12:30;;;;;;;3.40;1.10;;;17.50;99.90;;;;;;5070524;28;20940;-51
2021/05/22 12:14:56;;;;;;;1.67;1.23;;;17.60;99.90;;;;;;5070969;28;20554;-51
2021/05/22 12:17:23;;;;;;;1.13;0.67;;;17.20;99.70;;;;;;5070830;28;20454;-51
2021/05/22 12:19:51;;;;;;;1.03;0.80;;;17.30;98.20;;;;;;5070264;28;20489;-51
2021/05/22 12:22:25;;;;;;;2.23;0.90;;;17.70;99.90;;;;;;5068762;28;20482;-51
2021/05/22 12:24:54;;;;;;;0.80;0.80;;;17.40;98.30;;;;;;5066901;28;20465;-52
2021/05/22 12:27:21;;;;;;;1.20;0.90;;;17.40;98.50;;;;;;5065579;28;20454;-50
2021/05/22 12:29:50;;;;;;;1.80;1.00;;;17.30;98.50;;;;;;5059703;28;20446;-51
2021/05/22 12:32:17;;;;;;;1.80;1.10;;;17.40;98.90;;;;;;5071449;28;20454;-51
2021/05/22 12:34:44;;;;;;;1.70;1.00;;;17.10;98.80;;;;;;5070587;28;20489;-50
2021/05/22 12:37:14;;;;;;;2.70;0.80;;;17.20;98.70;;;;;;5071075;28;20447;-52
2021/05/22 12:39:42;;;;;;;2.40;1.07;;;17.50;97.50;;;;;;5064236;28;20458;-50
2021/05/22 12:42:20;;;;;;;3.07;1.00;;;17.80;99.90;;;;;;5063808;28;20477;-51
2021/05/22 12:44:50;;;;;;;1.57;1.00;;;17.50;97.70;;;;;;5074663;28;20478;-51
2021/05/22 12:47:18;;;;;;;1.53;0.90;;;17.30;98.90;;;;;;5055168;28;20454;-51
2021/05/22 12:49:52;;;;;;;1.73;1.10;;;17.20;99.40;;;;;;5070694;28;20451;-52
2021/05/22 12:52:18;;;;;;;1.63;0.97;;;17.30;99.90;;;;;;5055214;28;20444;-51
2021/05/22 12:54:46;;;;;;;0.77;0.73;;;17.70;99.90;;;;;;5066911;28;20501;-51
2021/05/22 12:57:14;;;;;;;2.30;1.10;;;17.40;98.40;;;;;;5074540;28;20449;-51